Long Lane, Missouri
Current Conditions -  °F | °C
As of 12:55 AM on Monday 24 Nov 2014 (Local Time) from KH21 Reporting Station
Moderate Rain Moderate Rain  
Wind Chill: -2°   Ceiling: 1000
Heat Index:   Visibility: 7mi
Dew Point:   Wind: 21mph
Humidity: 93%   Direction: 280°W
Pressure: 29.44"   Gusts: 30mph
Location:  37.61°N, 92.91°W
Report Text: KH21 240655Z AUTO 28018G26KT 7SM RA OVC010 04/03 A2944 RMK AO2 LTG DSNT NE P0003
Loading
Personal Weather Stations






























Interactive Weather Map New forecast layout! Learn more

10-Day Weather Forecast

Advertisements
Track Severe Weather on mobile